Silver Shadow — C6FN6 — position and weather

sailwx.info

Track history (hours):
 
Tides and Currents Weather Stations Pressure Air Temp Water Temp Dewpoint Dewpoint Depression Visibility Wind Speed Wind Dir Waves Ship Positions

Silver Shadow

Operator: V Ships Leisure SAM

Last reported at 2017-Jan-19 13:24 UTC. Time now 2017-Jan-19 21:20 UTC.
Position N 01°28' E 103°49'.

Length 186 m; draft 6.1 m.

Type: Ship. MMSI: 308628000.

Date/timePositionNaut miles runAvg speedWind from/ knotsBaromVisibWave heightAir tempDewpointWater temp
2017-Jan-19 13:24N 01°28' E 103°49'0 0.0
2017-Jan-18 11:24N 01°28' E 103°49'0 0.0
2017-Jan-18 10:30N 01°28' E 103°49'0 0.0
2017-Jan-18 09:30N 01°28' E 103°49'0 0.0
2017-Jan-18 08:12N 01°28' E 103°49'0 0.0
2017-Jan-18 02:18N 01°28' E 103°49'0 0.0
2017-Jan-18 01:21N 01°28' E 103°49'  
2017-Jan-15 08:31N 01°28' E 103°50'9 9.4
2017-Jan-15 07:33N 01°23' E 103°58'8 6.8
2017-Jan-15 06:19N 01°17' E 104°03'1517.3
2017-Jan-15 05:27N 01°12' E 103°49'3 3.0
2017-Jan-15 04:21N 01°16' E 103°49'0 0.0
2017-Jan-15 02:33N 01°16' E 103°49'0 0.0
2017-Jan-15 01:27N 01°16' E 103°49'0 0.0
2017-Jan-15 00:33N 01°16' E 103°49'0 0.0
2017-Jan-14 23:32N 01°16' E 103°49'4 3.7
2017-Jan-14 22:32N 01°12' E 103°49'1514.8
2017-Jan-14 21:33N 01°16' E 104°03'  
Track history (hours):
 
Tides and Currents Weather Stations Pressure Air Temp Water Temp Dewpoint Dewpoint Depression Visibility Wind Speed Wind Dir Waves Ship Positions

Silver Shadow

Operator: V Ships Leisure SAM

Last reported at 2017-Jan-19 13:24 UTC. Time now 2017-Jan-19 21:20 UTC.
Position N 01°28' E 103°49'.

Length 186 m; draft 6.1 m.

Type: Ship. MMSI: 308628000.

Date/timePositionNaut miles runAvg speedWind from/ knotsBaromVisibWave heightAir tempDewpointWater temp
2017-Jan-19 13:24N 01°28' E 103°49'0 0.0
2017-Jan-18 11:24N 01°28' E 103°49'0 0.0
2017-Jan-18 10:30N 01°28' E 103°49'0 0.0
2017-Jan-18 09:30N 01°28' E 103°49'0 0.0
2017-Jan-18 08:12N 01°28' E 103°49'0 0.0
2017-Jan-18 02:18N 01°28' E 103°49'0 0.0
2017-Jan-18 01:21N 01°28' E 103°49'  
2017-Jan-15 08:31N 01°28' E 103°50'9 9.4
2017-Jan-15 07:33N 01°23' E 103°58'8 6.8
2017-Jan-15 06:19N 01°17' E 104°03'1517.3
2017-Jan-15 05:27N 01°12' E 103°49'3 3.0
2017-Jan-15 04:21N 01°16' E 103°49'0 0.0
2017-Jan-15 02:33N 01°16' E 103°49'0 0.0
2017-Jan-15 01:27N 01°16' E 103°49'0 0.0
2017-Jan-15 00:33N 01°16' E 103°49'0 0.0
2017-Jan-14 23:32N 01°16' E 103°49'4 3.7
2017-Jan-14 22:32N 01°12' E 103°49'1514.8
2017-Jan-14 21:33N 01°16' E 104°03'  

Dump ship's entire track history